Terminal Aerodrome Forecast
Issued by NWS Anchorage, AK

Home | Current Version | Previous Version | Text Only | Print | Product List | Glossary On
Versions: 1 2 3 4 5 6 7 8 9 10 11 12 13 14 15 16 17 18 19 20 21 22 23 24 25 26 27 28 29 30 31 32 33 34 35 36 37 38 39 40 41 42 43 44 45 46
000
FTAK31 PANC 231120
TAFANC
TAF
PANC 231120Z 2312/2418 VRB03KT P6SM VCSH BKN060 WS020/12025KT
     FM231800 VRB04KT P6SM SCT060 OVC080 WS020/12030KT
     FM240200 36006KT P6SM SCT060 OVC090
     FM240900 01005KT P6SM VCSH BKN060=

USA.gov is the U.S. government's official web portal to all federal, state and local government web resources and services.